sensor_id;sensor_type;location;lat;lon;timestamp;temperature;humidity
48666;DHT22;34452;50.796;4.994;2023-04-05T00:01:26;3.80;98.20
48666;DHT22;34452;50.796;4.994;2023-04-05T00:03:54;3.80;98.70
48666;DHT22;34452;50.796;4.994;2023-04-05T00:06:21;3.80;99.00
48666;DHT22;34452;50.796;4.994;2023-04-05T00:08:51;3.80;99.10
48666;DHT22;34452;50.796;4.994;2023-04-05T00:11:21;3.80;99.20
48666;DHT22;34452;50.796;4.994;2023-04-05T00:13:47;3.70;99.30
48666;DHT22;34452;50.796;4.994;2023-04-05T00:16:14;3.60;99.50
48666;DHT22;34452;50.796;4.994;2023-04-05T00:18:40;3.60;99.10
48666;DHT22;34452;50.796;4.994;2023-04-05T00:21:11;3.60;98.60
48666;DHT22;34452;50.796;4.994;2023-04-05T00:23:39;3.50;98.40
48666;DHT22;34452;50.796;4.994;2023-04-05T00:26:06;3.50;98.50
48666;DHT22;34452;50.796;4.994;2023-04-05T00:28:33;3.50;98.70
48666;DHT22;34452;50.796;4.994;2023-04-05T00:30:58;3.50;98.80
48666;DHT22;34452;50.796;4.994;2023-04-05T00:33:24;3.40;99.40
48666;DHT22;34452;50.796;4.994;2023-04-05T00:35:50;3.40;99.80
48666;DHT22;34452;50.796;4.994;2023-04-05T00:38:16;3.30;99.90
48666;DHT22;34452;50.796;4.994;2023-04-05T00:40:41;3.30;99.90
48666;DHT22;34452;50.796;4.994;2023-04-05T00:43:07;3.20;99.90
48666;DHT22;34452;50.796;4.994;2023-04-05T00:45:33;3.20;99.90
48666;DHT22;34452;50.796;4.994;2023-04-05T00:47:59;3.20;99.90
48666;DHT22;34452;50.796;4.994;2023-04-05T00:50:26;3.20;99.90
48666;DHT22;34452;50.796;4.994;2023-04-05T00:52:56;3.20;99.90
48666;DHT22;34452;50.796;4.994;2023-04-05T00:55:24;3.20;99.90
48666;DHT22;34452;50.796;4.994;2023-04-05T00:57:52;3.20;99.90
48666;DHT22;34452;50.796;4.994;2023-04-05T01:00:19;3.10;99.90
48666;DHT22;34452;50.796;4.994;2023-04-05T01:08:32;3.10;99.90
48666;DHT22;34452;50.796;4.994;2023-04-05T01:11:04;3.00;99.90
48666;DHT22;34452;50.796;4.994;2023-04-05T01:13:31;2.90;99.90
48666;DHT22;34452;50.796;4.994;2023-04-05T01:15:57;2.80;99.90
48666;DHT22;34452;50.796;4.994;2023-04-05T01:18:24;2.80;99.90
48666;DHT22;34452;50.796;4.994;2023-04-05T01:23:56;2.90;99.90
48666;DHT22;34452;50.796;4.994;2023-04-05T01:32:17;2.90;99.90
48666;DHT22;34452;50.796;4.994;2023-04-05T01:35:00;2.90;99.90
48666;DHT22;34452;50.796;4.994;2023-04-05T01:37:31;2.90;99.90
48666;DHT22;34452;50.796;4.994;2023-04-05T01:39:59;2.80;99.90
48666;DHT22;34452;50.796;4.994;2023-04-05T01:42:25;2.80;99.90
48666;DHT22;34452;50.796;4.994;2023-04-05T01:44:52;2.80;99.90
48666;DHT22;34452;50.796;4.994;2023-04-05T01:47:18;2.80;99.90
48666;DHT22;34452;50.796;4.994;2023-04-05T01:49:45;2.80;99.90
48666;DHT22;34452;50.796;4.994;2023-04-05T01:52:11;2.80;99.90
48666;DHT22;34452;50.796;4.994;2023-04-05T01:54:36;2.80;99.90
48666;DHT22;34452;50.796;4.994;2023-04-05T01:57:03;2.80;99.90
48666;DHT22;34452;50.796;4.994;2023-04-05T01:59:29;2.70;99.90
48666;DHT22;34452;50.796;4.994;2023-04-05T02:01:55;2.60;99.90
48666;DHT22;34452;50.796;4.994;2023-04-05T02:04:20;2.60;99.90
48666;DHT22;34452;50.796;4.994;2023-04-05T02:06:46;2.60;99.90
48666;DHT22;34452;50.796;4.994;2023-04-05T02:09:12;2.50;99.90
48666;DHT22;34452;50.796;4.994;2023-04-05T02:11:37;2.50;99.90
48666;DHT22;34452;50.796;4.994;2023-04-05T02:14:03;2.30;99.90
48666;DHT22;34452;50.796;4.994;2023-04-05T02:16:29;2.20;99.90
48666;DHT22;34452;50.796;4.994;2023-04-05T02:18:58;2.30;99.90
48666;DHT22;34452;50.796;4.994;2023-04-05T02:21:25;2.30;99.90
48666;DHT22;34452;50.796;4.994;2023-04-05T02:23:51;2.30;99.90
48666;DHT22;34452;50.796;4.994;2023-04-05T02:26:17;2.30;99.90
48666;DHT22;34452;50.796;4.994;2023-04-05T02:28:43;2.30;99.90
48666;DHT22;34452;50.796;4.994;2023-04-05T02:31:10;2.30;99.90
48666;DHT22;34452;50.796;4.994;2023-04-05T02:33:36;2.20;99.90
48666;DHT22;34452;50.796;4.994;2023-04-05T02:36:04;2.20;99.90
48666;DHT22;34452;50.796;4.994;2023-04-05T02:38:32;2.20;99.90
48666;DHT22;34452;50.796;4.994;2023-04-05T02:40:58;2.10;99.90
48666;DHT22;34452;50.796;4.994;2023-04-05T02:43:24;2.20;99.90
48666;DHT22;34452;50.796;4.994;2023-04-05T02:45:50;2.20;99.90
48666;DHT22;34452;50.796;4.994;2023-04-05T02:48:16;2.20;99.90
48666;DHT22;34452;50.796;4.994;2023-04-05T02:50:46;2.20;99.90
48666;DHT22;34452;50.796;4.994;2023-04-05T02:53:13;2.20;99.90
48666;DHT22;34452;50.796;4.994;2023-04-05T02:55:39;2.20;99.90
48666;DHT22;34452;50.796;4.994;2023-04-05T02:58:06;2.00;99.90
48666;DHT22;34452;50.796;4.994;2023-04-05T03:00:33;2.00;99.90
48666;DHT22;34452;50.796;4.994;2023-04-05T03:02:59;2.00;99.90
48666;DHT22;34452;50.796;4.994;2023-04-05T03:05:25;2.00;99.90
48666;DHT22;34452;50.796;4.994;2023-04-05T03:07:50;1.80;99.90
48666;DHT22;34452;50.796;4.994;2023-04-05T03:10:17;1.60;99.90
48666;DHT22;34452;50.796;4.994;2023-04-05T03:12:44;1.50;99.90
48666;DHT22;34452;50.796;4.994;2023-04-05T03:15:10;1.30;99.90
48666;DHT22;34452;50.796;4.994;2023-04-05T03:17:36;1.30;99.90
48666;DHT22;34452;50.796;4.994;2023-04-05T03:20:02;1.30;99.90
48666;DHT22;34452;50.796;4.994;2023-04-05T03:22:40;1.20;99.90
48666;DHT22;34452;50.796;4.994;2023-04-05T03:25:06;1.10;99.90
48666;DHT22;34452;50.796;4.994;2023-04-05T03:27:32;1.20;99.90
48666;DHT22;34452;50.796;4.994;2023-04-05T03:29:57;1.20;99.90
48666;DHT22;34452;50.796;4.994;2023-04-05T03:32:23;1.20;99.90
48666;DHT22;34452;50.796;4.994;2023-04-05T03:34:49;1.10;99.90
48666;DHT22;34452;50.796;4.994;2023-04-05T03:37:15;1.10;99.90
48666;DHT22;34452;50.796;4.994;2023-04-05T03:39:41;1.00;99.90
48666;DHT22;34452;50.796;4.994;2023-04-05T03:42:07;1.00;99.90
48666;DHT22;34452;50.796;4.994;2023-04-05T03:44:32;0.90;99.90
48666;DHT22;34452;50.796;4.994;2023-04-05T03:46:58;0.80;99.90
48666;DHT22;34452;50.796;4.994;2023-04-05T03:49:24;0.90;99.90
48666;DHT22;34452;50.796;4.994;2023-04-05T03:51:50;1.00;99.90
48666;DHT22;34452;50.796;4.994;2023-04-05T03:54:16;1.10;99.90
48666;DHT22;34452;50.796;4.994;2023-04-05T03:56:41;1.20;99.90
48666;DHT22;34452;50.796;4.994;2023-04-05T03:59:07;1.20;99.90
48666;DHT22;34452;50.796;4.994;2023-04-05T04:01:33;1.30;99.90
48666;DHT22;34452;50.796;4.994;2023-04-05T04:03:59;1.40;99.90
48666;DHT22;34452;50.796;4.994;2023-04-05T04:06:25;1.30;99.90
48666;DHT22;34452;50.796;4.994;2023-04-05T04:08:51;1.20;99.90
48666;DHT22;34452;50.796;4.994;2023-04-05T04:11:17;1.20;99.90
48666;DHT22;34452;50.796;4.994;2023-04-05T04:13:42;1.20;99.90
48666;DHT22;34452;50.796;4.994;2023-04-05T04:16:08;1.20;99.90
48666;DHT22;34452;50.796;4.994;2023-04-05T04:18:35;1.20;99.90
48666;DHT22;34452;50.796;4.994;2023-04-05T04:21:02;1.20;99.90
48666;DHT22;34452;50.796;4.994;2023-04-05T04:23:32;1.20;99.90
48666;DHT22;34452;50.796;4.994;2023-04-05T04:25:59;1.20;99.90
48666;DHT22;34452;50.796;4.994;2023-04-05T04:28:26;1.30;99.90
48666;DHT22;34452;50.796;4.994;2023-04-05T04:30:52;1.30;99.90
48666;DHT22;34452;50.796;4.994;2023-04-05T04:33:18;1.30;99.90
48666;DHT22;34452;50.796;4.994;2023-04-05T04:35:45;1.30;99.90
48666;DHT22;34452;50.796;4.994;2023-04-05T04:38:11;1.30;99.90
48666;DHT22;34452;50.796;4.994;2023-04-05T04:40:43;1.20;99.90
48666;DHT22;34452;50.796;4.994;2023-04-05T04:43:24;1.10;99.90
48666;DHT22;34452;50.796;4.994;2023-04-05T04:46:09;1.00;99.90
48666;DHT22;34452;50.796;4.994;2023-04-05T04:48:40;0.90;99.90
48666;DHT22;34452;50.796;4.994;2023-04-05T04:51:06;0.90;99.90
48666;DHT22;34452;50.796;4.994;2023-04-05T04:53:32;0.80;99.90
48666;DHT22;34452;50.796;4.994;2023-04-05T04:55:58;0.90;99.90
48666;DHT22;34452;50.796;4.994;2023-04-05T04:58:24;0.80;99.90
48666;DHT22;34452;50.796;4.994;2023-04-05T05:00:49;0.80;99.90
48666;DHT22;34452;50.796;4.994;2023-04-05T05:03:17;0.70;99.90
48666;DHT22;34452;50.796;4.994;2023-04-05T05:05:45;0.80;99.90
48666;DHT22;34452;50.796;4.994;2023-04-05T05:08:12;0.90;99.90
48666;DHT22;34452;50.796;4.994;2023-04-05T05:10:38;0.80;99.90
48666;DHT22;34452;50.796;4.994;2023-04-05T05:13:04;0.80;99.90
48666;DHT22;34452;50.796;4.994;2023-04-05T05:15:30;0.80;99.90
48666;DHT22;34452;50.796;4.994;2023-04-05T05:17:55;0.90;99.90
48666;DHT22;34452;50.796;4.994;2023-04-05T05:20:23;0.80;99.90
48666;DHT22;34452;50.796;4.994;2023-04-05T05:22:48;0.80;99.90
48666;DHT22;34452;50.796;4.994;2023-04-05T05:25:15;0.90;99.90
48666;DHT22;34452;50.796;4.994;2023-04-05T05:27:41;0.90;99.90
48666;DHT22;34452;50.796;4.994;2023-04-05T05:30:07;1.00;99.90
48666;DHT22;34452;50.796;4.994;2023-04-05T05:32:33;0.90;99.90
48666;DHT22;34452;50.796;4.994;2023-04-05T05:34:59;0.90;99.90
48666;DHT22;34452;50.796;4.994;2023-04-05T05:37:43;0.80;99.90
48666;DHT22;34452;50.796;4.994;2023-04-05T05:40:09;0.90;99.90
48666;DHT22;34452;50.796;4.994;2023-04-05T05:42:38;0.90;99.90
48666;DHT22;34452;50.796;4.994;2023-04-05T05:45:05;0.90;99.90
48666;DHT22;34452;50.796;4.994;2023-04-05T05:47:31;0.90;99.90
48666;DHT22;34452;50.796;4.994;2023-04-05T05:49:57;1.00;99.90
48666;DHT22;34452;50.796;4.994;2023-04-05T05:52:23;1.00;99.90
48666;DHT22;34452;50.796;4.994;2023-04-05T05:54:49;1.00;99.90
48666;DHT22;34452;50.796;4.994;2023-04-05T05:57:14;1.00;99.90
48666;DHT22;34452;50.796;4.994;2023-04-05T05:59:40;1.10;99.90
48666;DHT22;34452;50.796;4.994;2023-04-05T06:02:07;1.10;99.90
48666;DHT22;34452;50.796;4.994;2023-04-05T06:04:32;1.30;99.90
48666;DHT22;34452;50.796;4.994;2023-04-05T06:06:59;1.40;99.90
48666;DHT22;34452;50.796;4.994;2023-04-05T06:09:26;1.40;99.90
48666;DHT22;34452;50.796;4.994;2023-04-05T06:11:53;1.40;99.90
48666;DHT22;34452;50.796;4.994;2023-04-05T06:14:19;1.40;99.90
48666;DHT22;34452;50.796;4.994;2023-04-05T06:16:45;1.50;99.90
48666;DHT22;34452;50.796;4.994;2023-04-05T06:19:11;1.50;99.90
48666;DHT22;34452;50.796;4.994;2023-04-05T06:21:36;1.60;99.90
48666;DHT22;34452;50.796;4.994;2023-04-05T06:24:02;1.60;99.90
48666;DHT22;34452;50.796;4.994;2023-04-05T06:26:28;1.70;99.90
48666;DHT22;34452;50.796;4.994;2023-04-05T06:28:54;1.80;99.90
48666;DHT22;34452;50.796;4.994;2023-04-05T06:31:25;1.90;99.90
48666;DHT22;34452;50.796;4.994;2023-04-05T06:33:51;2.00;99.90
48666;DHT22;34452;50.796;4.994;2023-04-05T06:36:17;2.00;99.90
48666;DHT22;34452;50.796;4.994;2023-04-05T06:38:43;2.20;99.90
48666;DHT22;34452;50.796;4.994;2023-04-05T06:41:08;2.30;99.90
48666;DHT22;34452;50.796;4.994;2023-04-05T06:43:34;2.40;99.90
48666;DHT22;34452;50.796;4.994;2023-04-05T06:46:00;2.50;99.90
48666;DHT22;34452;50.796;4.994;2023-04-05T06:48:27;2.60;99.90
48666;DHT22;34452;50.796;4.994;2023-04-05T06:51:12;2.60;99.90
48666;DHT22;34452;50.796;4.994;2023-04-05T06:53:37;2.60;99.90
48666;DHT22;34452;50.796;4.994;2023-04-05T06:56:03;2.70;99.90
48666;DHT22;34452;50.796;4.994;2023-04-05T06:58:29;2.80;99.90
48666;DHT22;34452;50.796;4.994;2023-04-05T07:00:56;2.90;99.90
48666;DHT22;34452;50.796;4.994;2023-04-05T07:03:22;3.10;99.90
48666;DHT22;34452;50.796;4.994;2023-04-05T07:06:00;3.20;99.90
48666;DHT22;34452;50.796;4.994;2023-04-05T07:08:29;3.30;99.90
48666;DHT22;34452;50.796;4.994;2023-04-05T07:10:55;3.40;99.90
48666;DHT22;34452;50.796;4.994;2023-04-05T07:13:22;3.50;99.90
48666;DHT22;34452;50.796;4.994;2023-04-05T07:15:49;3.60;99.90
48666;DHT22;34452;50.796;4.994;2023-04-05T07:18:15;3.70;99.90
48666;DHT22;34452;50.796;4.994;2023-04-05T07:20:41;3.80;99.90
48666;DHT22;34452;50.796;4.994;2023-04-05T07:23:07;3.80;99.90
48666;DHT22;34452;50.796;4.994;2023-04-05T07:25:33;4.00;99.90
48666;DHT22;34452;50.796;4.994;2023-04-05T07:27:59;4.00;99.90
48666;DHT22;34452;50.796;4.994;2023-04-05T07:30:26;4.10;99.90
48666;DHT22;34452;50.796;4.994;2023-04-05T07:32:52;4.20;99.90
48666;DHT22;34452;50.796;4.994;2023-04-05T07:35:18;4.30;99.90
48666;DHT22;34452;50.796;4.994;2023-04-05T07:37:44;4.40;99.90
48666;DHT22;34452;50.796;4.994;2023-04-05T07:40:10;4.50;99.90
48666;DHT22;34452;50.796;4.994;2023-04-05T07:42:36;4.60;99.90
48666;DHT22;34452;50.796;4.994;2023-04-05T07:45:02;4.70;99.90
48666;DHT22;34452;50.796;4.994;2023-04-05T07:47:28;4.80;99.90
48666;DHT22;34452;50.796;4.994;2023-04-05T07:49:54;4.90;99.90
48666;DHT22;34452;50.796;4.994;2023-04-05T07:52:20;5.00;99.90
48666;DHT22;34452;50.796;4.994;2023-04-05T07:54:45;5.10;99.90
48666;DHT22;34452;50.796;4.994;2023-04-05T07:57:29;5.20;99.90
48666;DHT22;34452;50.796;4.994;2023-04-05T07:59:55;5.30;99.90
48666;DHT22;34452;50.796;4.994;2023-04-05T08:02:21;5.40;99.90
48666;DHT22;34452;50.796;4.994;2023-04-05T08:04:47;5.50;99.90
48666;DHT22;34452;50.796;4.994;2023-04-05T08:07:12;5.50;99.90
48666;DHT22;34452;50.796;4.994;2023-04-05T08:09:38;5.70;99.90
48666;DHT22;34452;50.796;4.994;2023-04-05T08:12:04;5.80;99.90
48666;DHT22;34452;50.796;4.994;2023-04-05T08:14:31;5.90;99.90
48666;DHT22;34452;50.796;4.994;2023-04-05T08:16:56;6.00;99.90
48666;DHT22;34452;50.796;4.994;2023-04-05T08:19:22;6.20;99.90
48666;DHT22;34452;50.796;4.994;2023-04-05T08:21:48;6.30;99.90
48666;DHT22;34452;50.796;4.994;2023-04-05T08:24:13;6.30;99.90
48666;DHT22;34452;50.796;4.994;2023-04-05T08:26:39;6.40;99.90
48666;DHT22;34452;50.796;4.994;2023-04-05T08:29:06;6.50;99.90
48666;DHT22;34452;50.796;4.994;2023-04-05T08:31:32;6.60;99.90
48666;DHT22;34452;50.796;4.994;2023-04-05T08:33:58;6.70;99.90
48666;DHT22;34452;50.796;4.994;2023-04-05T08:36:24;6.80;99.90
48666;DHT22;34452;50.796;4.994;2023-04-05T08:38:50;6.90;99.90
48666;DHT22;34452;50.796;4.994;2023-04-05T08:41:18;7.00;99.90
48666;DHT22;34452;50.796;4.994;2023-04-05T08:46:13;7.20;99.90
48666;DHT22;34452;50.796;4.994;2023-04-05T08:48:39;7.30;98.20
48666;DHT22;34452;50.796;4.994;2023-04-05T08:51:05;7.30;97.40
48666;DHT22;34452;50.796;4.994;2023-04-05T08:53:33;7.40;96.40
48666;DHT22;34452;50.796;4.994;2023-04-05T08:56:00;7.50;95.70
48666;DHT22;34452;50.796;4.994;2023-04-05T08:58:27;7.50;94.40
48666;DHT22;34452;50.796;4.994;2023-04-05T09:00:55;7.70;93.40
48666;DHT22;34452;50.796;4.994;2023-04-05T09:03:23;7.80;93.30
48666;DHT22;34452;50.796;4.994;2023-04-05T09:05:51;7.80;93.40
48666;DHT22;34452;50.796;4.994;2023-04-05T09:08:17;8.00;93.70
48666;DHT22;34452;50.796;4.994;2023-04-05T09:10:43;8.10;92.90
48666;DHT22;34452;50.796;4.994;2023-04-05T09:13:09;8.20;92.30
48666;DHT22;34452;50.796;4.994;2023-04-05T09:15:38;8.30;90.00
48666;DHT22;34452;50.796;4.994;2023-04-05T09:18:03;8.40;90.30
48666;DHT22;34452;50.796;4.994;2023-04-05T09:20:29;8.60;88.80
48666;DHT22;34452;50.796;4.994;2023-04-05T09:22:56;8.70;89.70
48666;DHT22;34452;50.796;4.994;2023-04-05T09:25:36;8.80;87.90
48666;DHT22;34452;50.796;4.994;2023-04-05T09:28:05;9.00;85.90
48666;DHT22;34452;50.796;4.994;2023-04-05T09:30:31;9.10;83.90
48666;DHT22;34452;50.796;4.994;2023-04-05T09:32:57;9.10;81.20
48666;DHT22;34452;50.796;4.994;2023-04-05T09:35:25;9.20;77.50
48666;DHT22;34452;50.796;4.994;2023-04-05T09:37:57;9.30;75.30
48666;DHT22;34452;50.796;4.994;2023-04-05T09:40:23;9.30;73.30
48666;DHT22;34452;50.796;4.994;2023-04-05T09:42:49;9.30;72.70
48666;DHT22;34452;50.796;4.994;2023-04-05T09:45:16;9.40;72.70
48666;DHT22;34452;50.796;4.994;2023-04-05T09:47:54;9.50;75.90
48666;DHT22;34452;50.796;4.994;2023-04-05T09:50:21;9.70;73.40
48666;DHT22;34452;50.796;4.994;2023-04-05T09:52:46;9.70;71.10
48666;DHT22;34452;50.796;4.994;2023-04-05T09:55:18;9.70;71.20
48666;DHT22;34452;50.796;4.994;2023-04-05T09:57:49;9.60;66.20
48666;DHT22;34452;50.796;4.994;2023-04-05T10:00:18;9.60;62.80
48666;DHT22;34452;50.796;4.994;2023-04-05T10:02:45;9.70;62.70
48666;DHT22;34452;50.796;4.994;2023-04-05T10:05:12;9.90;62.30
48666;DHT22;34452;50.796;4.994;2023-04-05T10:07:40;10.10;65.60
48666;DHT22;34452;50.796;4.994;2023-04-05T10:10:08;10.20;64.30
48666;DHT22;34452;50.796;4.994;2023-04-05T10:12:38;10.20;62.90
48666;DHT22;34452;50.796;4.994;2023-04-05T10:15:06;10.20;66.20
48666;DHT22;34452;50.796;4.994;2023-04-05T10:17:38;10.20;63.70
48666;DHT22;34452;50.796;4.994;2023-04-05T10:20:14;10.30;62.70
48666;DHT22;34452;50.796;4.994;2023-04-05T10:28:05;10.30;61.90
48666;DHT22;34452;50.796;4.994;2023-04-05T10:30:35;10.40;63.50
48666;DHT22;34452;50.796;4.994;2023-04-05T10:33:20;10.40;60.80
48666;DHT22;34452;50.796;4.994;2023-04-05T10:35:59;10.50;66.70
48666;DHT22;34452;50.796;4.994;2023-04-05T10:38:35;10.70;65.40
48666;DHT22;34452;50.796;4.994;2023-04-05T10:41:09;10.80;65.40
48666;DHT22;34452;50.796;4.994;2023-04-05T10:43:38;10.80;64.00
48666;DHT22;34452;50.796;4.994;2023-04-05T10:46:06;10.90;64.40
48666;DHT22;34452;50.796;4.994;2023-04-05T10:51:14;11.10;64.20
48666;DHT22;34452;50.796;4.994;2023-04-05T10:53:40;11.20;63.10
48666;DHT22;34452;50.796;4.994;2023-04-05T10:56:07;11.30;60.90
48666;DHT22;34452;50.796;4.994;2023-04-05T10:58:34;11.20;60.10
48666;DHT22;34452;50.796;4.994;2023-04-05T11:01:00;11.20;60.40
48666;DHT22;34452;50.796;4.994;2023-04-05T11:03:46;11.30;63.00
48666;DHT22;34452;50.796;4.994;2023-04-05T11:06:29;11.20;62.90
48666;DHT22;34452;50.796;4.994;2023-04-05T11:08:59;11.30;63.30
48666;DHT22;34452;50.796;4.994;2023-04-05T11:11:25;11.40;61.90
48666;DHT22;34452;50.796;4.994;2023-04-05T11:13:53;11.40;60.90
48666;DHT22;34452;50.796;4.994;2023-04-05T11:16:20;11.60;60.60
48666;DHT22;34452;50.796;4.994;2023-04-05T11:18:47;11.80;61.80
48666;DHT22;34452;50.796;4.994;2023-04-05T11:21:31;12.00;61.70
48666;DHT22;34452;50.796;4.994;2023-04-05T11:24:15;12.20;59.90
48666;DHT22;34452;50.796;4.994;2023-04-05T11:29:08;12.10;56.90
48666;DHT22;34452;50.796;4.994;2023-04-05T11:31:34;12.20;61.10
48666;DHT22;34452;50.796;4.994;2023-04-05T11:34:02;12.50;60.60
48666;DHT22;34452;50.796;4.994;2023-04-05T11:36:43;12.70;58.70
48666;DHT22;34452;50.796;4.994;2023-04-05T11:39:28;12.70;59.00
48666;DHT22;34452;50.796;4.994;2023-04-05T11:41:55;12.70;58.30
48666;DHT22;34452;50.796;4.994;2023-04-05T11:44:22;12.60;56.50
48666;DHT22;34452;50.796;4.994;2023-04-05T11:46:49;12.30;56.50
48666;DHT22;34452;50.796;4.994;2023-04-05T11:49:15;12.40;56.60
48666;DHT22;34452;50.796;4.994;2023-04-05T11:51:41;12.60;57.00
48666;DHT22;34452;50.796;4.994;2023-04-05T11:54:08;12.40;56.40
48666;DHT22;34452;50.796;4.994;2023-04-05T11:56:34;12.30;57.20
48666;DHT22;34452;50.796;4.994;2023-04-05T11:59:00;12.60;56.50
48666;DHT22;34452;50.796;4.994;2023-04-05T12:01:26;12.70;55.40
48666;DHT22;34452;50.796;4.994;2023-04-05T12:04:12;12.80;54.50
48666;DHT22;34452;50.796;4.994;2023-04-05T12:06:38;13.00;57.40
48666;DHT22;34452;50.796;4.994;2023-04-05T12:09:06;13.10;58.10
48666;DHT22;34452;50.796;4.994;2023-04-05T12:11:31;13.20;54.90
48666;DHT22;34452;50.796;4.994;2023-04-05T12:14:08;13.20;56.60
48666;DHT22;34452;50.796;4.994;2023-04-05T12:16:34;13.20;54.80
48666;DHT22;34452;50.796;4.994;2023-04-05T12:19:00;13.20;55.80
48666;DHT22;34452;50.796;4.994;2023-04-05T12:21:26;13.30;54.60
48666;DHT22;34452;50.796;4.994;2023-04-05T12:23:53;13.30;52.60
48666;DHT22;34452;50.796;4.994;2023-04-05T12:26:19;13.30;54.60
48666;DHT22;34452;50.796;4.994;2023-04-05T12:29:04;13.30;53.30
48666;DHT22;34452;50.796;4.994;2023-04-05T12:31:49;13.60;55.40
48666;DHT22;34452;50.796;4.994;2023-04-05T12:34:22;13.90;55.20
48666;DHT22;34452;50.796;4.994;2023-04-05T12:36:50;14.10;51.60
48666;DHT22;34452;50.796;4.994;2023-04-05T12:39:16;14.00;51.40
48666;DHT22;34452;50.796;4.994;2023-04-05T12:41:42;14.10;51.70
48666;DHT22;34452;50.796;4.994;2023-04-05T12:44:36;14.00;50.50
48666;DHT22;34452;50.796;4.994;2023-04-05T12:47:03;13.70;52.20
48666;DHT22;34452;50.796;4.994;2023-04-05T12:49:36;13.90;50.30
48666;DHT22;34452;50.796;4.994;2023-04-05T12:52:02;13.90;51.30
48666;DHT22;34452;50.796;4.994;2023-04-05T12:54:28;13.80;52.80
48666;DHT22;34452;50.796;4.994;2023-04-05T12:56:55;13.70;51.20
48666;DHT22;34452;50.796;4.994;2023-04-05T12:59:21;13.70;51.10
48666;DHT22;34452;50.796;4.994;2023-04-05T13:01:47;13.40;50.40
48666;DHT22;34452;50.796;4.994;2023-04-05T13:04:13;13.30;52.30
48666;DHT22;34452;50.796;4.994;2023-04-05T13:06:39;13.20;50.80
48666;DHT22;34452;50.796;4.994;2023-04-05T13:09:05;13.20;48.60
48666;DHT22;34452;50.796;4.994;2023-04-05T13:11:30;13.30;52.90
48666;DHT22;34452;50.796;4.994;2023-04-05T13:13:56;13.50;52.30
48666;DHT22;34452;50.796;4.994;2023-04-05T13:16:22;13.60;51.00
48666;DHT22;34452;50.796;4.994;2023-04-05T13:18:48;13.90;50.90
48666;DHT22;34452;50.796;4.994;2023-04-05T13:21:14;14.00;51.70
48666;DHT22;34452;50.796;4.994;2023-04-05T13:23:40;14.10;52.90
48666;DHT22;34452;50.796;4.994;2023-04-05T13:26:06;14.30;52.90
48666;DHT22;34452;50.796;4.994;2023-04-05T13:28:32;13.80;49.70
48666;DHT22;34452;50.796;4.994;2023-04-05T13:30:59;13.90;51.10
48666;DHT22;34452;50.796;4.994;2023-04-05T13:33:25;14.10;54.10
48666;DHT22;34452;50.796;4.994;2023-04-05T13:35:51;14.20;53.10
48666;DHT22;34452;50.796;4.994;2023-04-05T13:38:17;14.20;52.30
48666;DHT22;34452;50.796;4.994;2023-04-05T13:40:42;14.20;51.40
48666;DHT22;34452;50.796;4.994;2023-04-05T13:43:08;14.10;47.50
48666;DHT22;34452;50.796;4.994;2023-04-05T13:45:34;14.10;47.30
48666;DHT22;34452;50.796;4.994;2023-04-05T13:48:02;14.20;51.60
48666;DHT22;34452;50.796;4.994;2023-04-05T13:50:27;14.20;52.80
48666;DHT22;34452;50.796;4.994;2023-04-05T13:52:53;14.40;52.50
48666;DHT22;34452;50.796;4.994;2023-04-05T13:55:19;14.40;50.80
48666;DHT22;34452;50.796;4.994;2023-04-05T13:57:45;14.40;51.60
48666;DHT22;34452;50.796;4.994;2023-04-05T14:00:11;14.20;47.60
48666;DHT22;34452;50.796;4.994;2023-04-05T14:02:37;14.30;48.70
48666;DHT22;34452;50.796;4.994;2023-04-05T14:05:04;14.10;50.70
48666;DHT22;34452;50.796;4.994;2023-04-05T14:07:30;14.60;51.30
48666;DHT22;34452;50.796;4.994;2023-04-05T14:09:56;14.70;52.70
48666;DHT22;34452;50.796;4.994;2023-04-05T14:12:22;14.90;52.90
48666;DHT22;34452;50.796;4.994;2023-04-05T14:14:49;15.20;51.20
48666;DHT22;34452;50.796;4.994;2023-04-05T14:17:15;14.90;52.30
48666;DHT22;34452;50.796;4.994;2023-04-05T14:19:41;14.60;50.00
48666;DHT22;34452;50.796;4.994;2023-04-05T14:22:07;14.50;52.00
48666;DHT22;34452;50.796;4.994;2023-04-05T14:24:33;14.60;49.20
48666;DHT22;34452;50.796;4.994;2023-04-05T14:26:59;14.80;50.00
48666;DHT22;34452;50.796;4.994;2023-04-05T14:29:25;14.80;50.70
48666;DHT22;34452;50.796;4.994;2023-04-05T14:31:53;14.50;50.60
48666;DHT22;34452;50.796;4.994;2023-04-05T14:34:19;14.50;48.00
48666;DHT22;34452;50.796;4.994;2023-04-05T14:36:45;14.20;50.70
48666;DHT22;34452;50.796;4.994;2023-04-05T14:39:11;14.40;52.00
48666;DHT22;34452;50.796;4.994;2023-04-05T14:41:37;14.20;50.80
48666;DHT22;34452;50.796;4.994;2023-04-05T14:44:03;14.00;50.60
48666;DHT22;34452;50.796;4.994;2023-04-05T14:46:29;13.70;49.60
48666;DHT22;34452;50.796;4.994;2023-04-05T14:48:54;13.70;53.60
48666;DHT22;34452;50.796;4.994;2023-04-05T14:51:20;13.80;51.80
48666;DHT22;34452;50.796;4.994;2023-04-05T14:53:46;13.80;53.50
48666;DHT22;34452;50.796;4.994;2023-04-05T14:56:12;14.00;50.10
48666;DHT22;34452;50.796;4.994;2023-04-05T14:58:37;14.50;53.40
48666;DHT22;34452;50.796;4.994;2023-04-05T15:01:03;14.80;51.50
48666;DHT22;34452;50.796;4.994;2023-04-05T15:03:30;14.50;48.00
48666;DHT22;34452;50.796;4.994;2023-04-05T15:05:56;14.20;48.90
48666;DHT22;34452;50.796;4.994;2023-04-05T15:08:22;14.30;49.70
48666;DHT22;34452;50.796;4.994;2023-04-05T15:10:48;14.20;50.10
48666;DHT22;34452;50.796;4.994;2023-04-05T15:13:13;14.30;51.30
48666;DHT22;34452;50.796;4.994;2023-04-05T15:15:39;14.40;49.30
48666;DHT22;34452;50.796;4.994;2023-04-05T15:18:05;14.60;47.80
48666;DHT22;34452;50.796;4.994;2023-04-05T15:20:33;14.80;50.80
48666;DHT22;34452;50.796;4.994;2023-04-05T15:22:59;14.80;51.70
48666;DHT22;34452;50.796;4.994;2023-04-05T15:25:25;14.80;50.30
48666;DHT22;34452;50.796;4.994;2023-04-05T15:27:52;14.70;48.90
48666;DHT22;34452;50.796;4.994;2023-04-05T15:30:19;15.10;50.10
48666;DHT22;34452;50.796;4.994;2023-04-05T15:32:45;15.40;50.90
48666;DHT22;34452;50.796;4.994;2023-04-05T15:35:11;15.80;49.90
48666;DHT22;34452;50.796;4.994;2023-04-05T15:37:37;16.70;48.70
48666;DHT22;34452;50.796;4.994;2023-04-05T15:40:04;17.20;46.00
48666;DHT22;34452;50.796;4.994;2023-04-05T15:42:30;17.30;42.20
48666;DHT22;34452;50.796;4.994;2023-04-05T15:44:57;17.30;44.10
48666;DHT22;34452;50.796;4.994;2023-04-05T15:47:23;18.10;45.20
48666;DHT22;34452;50.796;4.994;2023-04-05T15:49:49;18.20;42.60
48666;DHT22;34452;50.796;4.994;2023-04-05T15:52:16;18.30;42.70
48666;DHT22;34452;50.796;4.994;2023-04-05T15:54:42;18.70;42.60
48666;DHT22;34452;50.796;4.994;2023-04-05T15:57:09;18.50;42.10
48666;DHT22;34452;50.796;4.994;2023-04-05T15:59:35;18.80;43.50
48666;DHT22;34452;50.796;4.994;2023-04-05T16:02:01;18.60;44.20
48666;DHT22;34452;50.796;4.994;2023-04-05T16:04:28;18.40;40.10
48666;DHT22;34452;50.796;4.994;2023-04-05T16:06:54;17.80;41.20
48666;DHT22;34452;50.796;4.994;2023-04-05T16:09:21;17.90;40.20